Time;durP1;ratioP1;P1;durP2;ratioP2;P2;SDS_P1;SDS_P2;PMS_P1;PMS_P2;Temp;Humidity;BMP_temperature;BMP_pressure;BME280_temperature;BME280_humidity;BME280_pressure;Samples;Min_cycle;Max_cycle;Signal;HPM_P1;HPM_P2
2023/11/12 00:02:37;;;;;;;7.82;4.85;;;24.10;55.50;;;;;;6032400;28;84209;-60
2023/11/12 00:05:37;;;;;;;7.63;5.40;;;24.10;55.20;;;;;;6051024;28;83297;-60
2023/11/12 00:08:38;;;;;;;6.22;4.45;;;24.00;55.10;;;;;;6036453;28;82349;-59
2023/11/12 00:11:38;;;;;;;9.10;5.63;;;24.10;55.30;;;;;;6050241;28;86080;-59
2023/11/12 00:14:41;;;;;;;9.35;6.38;;;24.00;54.80;;;;;;6052754;28;82288;-59
2023/11/12 00:17:42;;;;;;;9.82;5.68;;;24.00;54.90;;;;;;6051401;28;83173;-59
2023/11/12 00:20:42;;;;;;;7.32;5.63;;;24.00;55.10;;;;;;6045687;28;82312;-58
2023/11/12 00:23:44;;;;;;;10.60;6.57;;;24.00;54.70;;;;;;6041122;28;82300;-58
2023/11/12 00:26:45;;;;;;;10.00;6.18;;;24.00;54.60;;;;;;6049542;28;82085;-58
2023/11/12 00:29:46;;;;;;;8.82;5.70;;;24.00;54.60;;;;;;6051949;28;82687;-58
2023/11/12 00:32:46;;;;;;;10.35;6.22;;;24.00;54.50;;;;;;6050935;28;83345;-59
2023/11/12 00:35:47;;;;;;;11.63;6.43;;;24.00;54.60;;;;;;6053600;28;81404;-58
2023/11/12 00:38:47;;;;;;;10.93;6.32;;;24.00;54.60;;;;;;6038414;28;90972;-59
2023/11/12 00:41:48;;;;;;;11.57;6.75;;;24.00;54.60;;;;;;6045191;28;81830;-58
2023/11/12 00:44:49;;;;;;;12.18;7.28;;;24.00;54.60;;;;;;6051673;28;86287;-58
2023/11/12 00:47:49;;;;;;;10.57;6.97;;;24.00;54.70;;;;;;6047498;28;81936;-58
2023/11/12 00:50:49;;;;;;;10.23;6.75;;;24.00;54.70;;;;;;6045887;28;80437;-57
2023/11/12 00:53:50;;;;;;;9.48;6.43;;;23.90;54.50;;;;;;6046741;28;82307;-58
2023/11/12 00:56:50;;;;;;;10.80;6.82;;;24.00;54.90;;;;;;6051235;28;80523;-58
2023/11/12 00:59:52;;;;;;;11.55;6.95;;;24.00;55.00;;;;;;6051515;28;82902;-58
2023/11/12 01:02:53;;;;;;;13.25;7.60;;;24.00;54.70;;;;;;6051629;28;82246;-57
2023/11/12 01:05:54;;;;;;;10.65;6.97;;;24.00;54.70;;;;;;6050862;28;81506;-59
2023/11/12 01:08:54;;;;;;;11.55;7.45;;;24.00;54.50;;;;;;6049756;28;81690;-59
2023/11/12 01:11:55;;;;;;;14.20;8.07;;;24.00;54.80;;;;;;6047629;28;82457;-60
2023/11/12 01:14:55;;;;;;;12.70;8.07;;;24.00;54.70;;;;;;6050874;28;82339;-59
2023/11/12 01:17:57;;;;;;;11.77;8.50;;;24.00;54.50;;;;;;6050547;28;86893;-60
2023/11/12 01:20:57;;;;;;;11.43;7.72;;;24.00;54.40;;;;;;6045816;28;84969;-59
2023/11/12 01:23:58;;;;;;;11.98;6.97;;;24.00;54.90;;;;;;6047773;28;82240;-60
2023/11/12 01:26:58;;;;;;;16.23;9.35;;;24.00;54.50;;;;;;6052361;28;82095;-56
2023/11/12 01:29:59;;;;;;;15.38;9.38;;;24.00;54.10;;;;;;6047087;28;81917;-59
2023/11/12 01:33:00;;;;;;;14.88;10.07;;;24.00;53.90;;;;;;6054533;28;82247;-65
2023/11/12 01:36:00;;;;;;;13.52;9.20;;;24.00;54.00;;;;;;6045625;28;84710;-68
2023/11/12 01:39:02;;;;;;;14.70;8.75;;;24.00;54.10;;;;;;6047472;28;83517;-67
2023/11/12 01:42:10;;;;;;;11.55;8.27;;;24.00;53.90;;;;;;6023123;28;83427;-67
2023/11/12 01:45:11;;;;;;;14.95;10.05;;;24.00;53.80;;;;;;6041622;28;80726;-67
2023/11/12 01:48:12;;;;;;;15.85;10.40;;;24.00;54.30;;;;;;6028393;28;88032;-68
2023/11/12 01:51:12;;;;;;;11.90;8.27;;;24.00;54.20;;;;;;6035732;28;84824;-70
2023/11/12 01:54:14;;;;;;;15.15;9.93;;;24.00;54.30;;;;;;6050474;28;83146;-68
2023/11/12 01:57:14;;;;;;;15.77;9.27;;;24.00;54.30;;;;;;6048597;28;82246;-67
2023/11/12 02:00:16;;;;;;;17.02;10.95;;;24.00;54.20;;;;;;6044746;28;84198;-67
2023/11/12 02:03:17;;;;;;;17.35;10.73;;;23.90;54.20;;;;;;6047512;28;85180;-67
2023/11/12 02:06:17;;;;;;;17.92;10.25;;;24.00;53.80;;;;;;6119154;28;85485;-65
2023/11/12 02:09:19;;;;;;;17.75;10.32;;;24.00;53.90;;;;;;6175562;28;86236;-60
2023/11/12 02:12:20;;;;;;;17.10;10.98;;;23.90;54.20;;;;;;6173591;28;82989;-60
2023/11/12 02:15:21;;;;;;;14.52;8.68;;;23.90;54.00;;;;;;6167441;28;85849;-60
2023/11/12 02:18:21;;;;;;;15.25;10.40;;;24.00;54.30;;;;;;6174596;28;81806;-60
2023/11/12 02:21:23;;;;;;;17.15;10.85;;;24.00;54.00;;;;;;6171539;28;83621;-60
2023/11/12 02:24:24;;;;;;;19.05;11.20;;;24.00;54.00;;;;;;6169068;28;85859;-60
2023/11/12 02:27:25;;;;;;;13.18;9.07;;;24.00;53.90;;;;;;6171121;28;82973;-58
2023/11/12 02:30:26;;;;;;;17.75;10.45;;;24.00;53.90;;;;;;6172675;28;82904;-58
2023/11/12 02:33:27;;;;;;;14.00;9.13;;;24.00;53.70;;;;;;6169309;28;83521;-57
2023/11/12 02:36:27;;;;;;;17.77;9.00;;;24.00;53.80;;;;;;6172614;28;85818;-58
2023/11/12 02:39:28;;;;;;;16.75;10.15;;;24.00;53.80;;;;;;6174310;28;83499;-56
2023/11/12 02:42:29;;;;;;;14.25;9.30;;;24.00;53.60;;;;;;6173133;28;84479;-57
2023/11/12 02:45:29;;;;;;;14.93;9.82;;;23.90;53.90;;;;;;6177067;28;82691;-59
2023/11/12 02:48:31;;;;;;;18.10;11.13;;;24.00;53.90;;;;;;6174335;28;81462;-60
2023/11/12 02:51:31;;;;;;;18.77;12.13;;;23.90;53.60;;;;;;6173023;28;83292;-59
2023/11/12 02:54:34;;;;;;;20.58;13.25;;;23.90;53.20;;;;;;6173096;28;83631;-59
2023/11/12 02:57:35;;;;;;;22.50;13.43;;;23.90;53.30;;;;;;6172695;28;84168;-61
2023/11/12 03:00:37;;;;;;;20.92;12.80;;;23.90;53.40;;;;;;6173148;28;83318;-59
2023/11/12 03:03:38;;;;;;;22.73;13.55;;;23.80;53.40;;;;;;6170707;28;85893;-69
2023/11/12 03:06:38;;;;;;;18.92;12.05;;;23.80;53.40;;;;;;6173923;28;85199;-69
2023/11/12 03:09:40;;;;;;;21.08;12.73;;;23.80;53.50;;;;;;6173250;28;83904;-70
2023/11/12 03:12:40;;;;;;;21.20;11.98;;;23.80;53.40;;;;;;6172835;28;83172;-67
2023/11/12 03:15:41;;;;;;;21.15;12.20;;;23.70;53.40;;;;;;6197351;28;88126;-64
2023/11/12 03:18:42;;;;;;;18.23;11.18;;;23.70;53.50;;;;;;6185530;28;83013;-74
2023/11/12 03:21:42;;;;;;;18.33;10.85;;;23.80;53.30;;;;;;6195492;28;85809;-72
2023/11/12 03:24:43;;;;;;;18.42;11.40;;;23.90;53.30;;;;;;6189802;28;86390;-70
2023/11/12 03:27:44;;;;;;;19.08;11.13;;;23.90;53.20;;;;;;6184213;28;83594;-67
2023/11/12 03:30:45;;;;;;;16.67;11.80;;;23.80;53.20;;;;;;6168646;28;85562;-67
2023/11/12 03:33:46;;;;;;;17.75;11.23;;;23.90;53.10;;;;;;6173800;28;83310;-68
2023/11/12 03:36:46;;;;;;;16.73;11.30;;;23.80;53.00;;;;;;6175454;28;85863;-64
2023/11/12 03:39:47;;;;;;;17.38;11.57;;;23.90;53.00;;;;;;6160529;28;83131;-60
2023/11/12 03:42:48;;;;;;;19.38;12.30;;;23.90;52.60;;;;;;6181756;28;83379;-60
2023/11/12 03:45:48;;;;;;;19.67;11.48;;;23.90;52.50;;;;;;6171350;28;86050;-59
2023/11/12 03:48:49;;;;;;;17.10;11.18;;;23.90;52.40;;;;;;6184213;28;83903;-61
2023/11/12 03:51:51;;;;;;;16.60;10.80;;;23.90;52.50;;;;;;6170988;28;83133;-60
2023/11/12 03:54:52;;;;;;;14.43;9.52;;;23.90;52.40;;;;;;6193771;28;83797;-60
2023/11/12 03:57:52;;;;;;;17.52;9.98;;;23.80;52.30;;;;;;6186614;28;82962;-59
2023/11/12 04:00:53;;;;;;;16.50;10.15;;;23.90;52.30;;;;;;6177158;28;83132;-60
2023/11/12 04:03:54;;;;;;;16.75;11.07;;;23.80;52.60;;;;;;6171424;28;83099;-59
2023/11/12 04:06:54;;;;;;;16.75;10.77;;;23.80;52.60;;;;;;6170474;28;85831;-59
2023/11/12 04:09:55;;;;;;;14.57;9.68;;;23.80;52.70;;;;;;6173404;28;84151;-59
2023/11/12 04:12:55;;;;;;;17.80;10.38;;;23.80;52.60;;;;;;6174996;28;82958;-58
2023/11/12 04:15:56;;;;;;;17.73;9.80;;;23.80;52.70;;;;;;6172186;28;83975;-59
2023/11/12 04:18:56;;;;;;;15.05;9.80;;;23.80;52.60;;;;;;6178236;28;81805;-58
2023/11/12 04:21:57;;;;;;;16.70;10.73;;;23.80;52.50;;;;;;6195152;28;80799;-59
2023/11/12 04:24:58;;;;;;;13.02;9.43;;;23.90;51.80;;;;;;6172347;28;86159;-59
2023/11/12 04:27:59;;;;;;;14.23;9.30;;;23.90;51.70;;;;;;6175322;28;84020;-59
2023/11/12 04:30:59;;;;;;;15.40;9.68;;;23.90;52.00;;;;;;6185609;28;80951;-58
2023/11/12 04:34:00;;;;;;;14.13;9.40;;;23.80;52.10;;;;;;6178484;28;80797;-60
2023/11/12 04:37:01;;;;;;;12.98;8.52;;;23.80;52.10;;;;;;6192821;28;82525;-59
2023/11/12 04:40:03;;;;;;;12.45;9.20;;;23.90;52.30;;;;;;6199359;28;80710;-59
2023/11/12 04:43:04;;;;;;;11.48;8.63;;;23.90;52.30;;;;;;6198689;28;81024;-61
2023/11/12 04:46:04;;;;;;;13.90;9.27;;;24.00;52.10;;;;;;6198344;28;80453;-58
2023/11/12 04:49:05;;;;;;;14.65;9.15;;;23.90;51.90;;;;;;6184176;28;82444;-57
2023/11/12 04:52:06;;;;;;;11.95;8.48;;;23.90;51.80;;;;;;6174373;28;80533;-58
2023/11/12 04:55:07;;;;;;;12.95;8.48;;;24.00;51.90;;;;;;6178868;28;80657;-57
2023/11/12 04:58:08;;;;;;;11.95;7.65;;;24.00;51.80;;;;;;6177844;28;80921;-57
2023/11/12 05:01:09;;;;;;;10.82;7.07;;;24.00;51.90;;;;;;6177891;28;80656;-57
2023/11/12 05:04:09;;;;;;;8.95;7.07;;;24.00;51.80;;;;;;6186295;28;80353;-58
2023/11/12 05:07:10;;;;;;;11.02;6.90;;;24.00;51.80;;;;;;6194805;28;81993;-58
2023/11/12 05:10:11;;;;;;;10.23;6.90;;;24.10;51.70;;;;;;6183683;28;80211;-59
2023/11/12 05:13:11;;;;;;;9.13;6.35;;;24.10;51.80;;;;;;6176589;28;80550;-70
2023/11/12 05:16:12;;;;;;;11.23;6.95;;;24.10;51.80;;;;;;6175438;28;80530;-68
2023/11/12 05:19:12;;;;;;;8.90;6.32;;;24.10;51.70;;;;;;6171537;28;80636;-69
2023/11/12 05:22:13;;;;;;;8.77;6.25;;;24.10;51.80;;;;;;6179884;28;80296;-68
2023/11/12 05:25:14;;;;;;;6.85;5.32;;;24.10;51.80;;;;;;6180443;28;80368;-70
2023/11/12 05:28:15;;;;;;;8.90;5.75;;;24.10;52.00;;;;;;6179583;28;80671;-71
2023/11/12 05:31:15;;;;;;;8.57;5.78;;;24.10;52.10;;;;;;6177862;28;80576;-66
2023/11/12 05:34:16;;;;;;;12.70;5.50;;;24.10;51.80;;;;;;6179488;28;80572;-70
2023/11/12 05:37:16;;;;;;;8.65;5.30;;;24.10;51.90;;;;;;6176651;28;80549;-70
2023/11/12 05:40:17;;;;;;;6.05;5.00;;;24.10;51.90;;;;;;6169105;28;80838;-69
2023/11/12 05:43:18;;;;;;;9.50;5.20;;;24.10;52.00;;;;;;6176105;28;80370;-72
2023/11/12 05:46:18;;;;;;;7.95;5.13;;;24.10;51.90;;;;;;6178489;28;80428;-75
2023/11/12 05:49:19;;;;;;;9.82;5.00;;;24.10;51.80;;;;;;6177146;28;80475;-73
2023/11/12 05:52:19;;;;;;;8.27;5.57;;;24.10;51.70;;;;;;6177659;28;80745;-72
2023/11/12 05:55:20;;;;;;;7.30;4.20;;;24.10;51.70;;;;;;6178999;28;81020;-74
2023/11/12 05:58:20;;;;;;;5.78;4.40;;;24.10;51.00;;;;;;6179201;28;80197;-72
2023/11/12 06:01:21;;;;;;;5.75;4.43;;;24.10;51.30;;;;;;6178109;28;81371;-69
2023/11/12 06:04:21;;;;;;;6.47;4.25;;;24.10;50.70;;;;;;6169924;28;80317;-72
2023/11/12 06:07:22;;;;;;;6.32;4.63;;;24.10;50.80;;;;;;6174645;28;80816;-58
2023/11/12 06:10:23;;;;;;;16.17;4.78;;;24.10;51.10;;;;;;6177614;28;80490;-60
2023/11/12 06:13:23;;;;;;;5.80;3.60;;;24.10;51.50;;;;;;6165357;28;80686;-59
2023/11/12 06:16:24;;;;;;;7.15;4.20;;;24.00;51.60;;;;;;6178010;28;80427;-60
2023/11/12 06:19:24;;;;;;;7.80;3.90;;;24.00;51.70;;;;;;6177234;28;80117;-60
2023/11/12 06:22:25;;;;;;;6.70;4.13;;;24.00;51.30;;;;;;6178229;28;82618;-60
2023/11/12 06:25:25;;;;;;;5.85;4.00;;;24.10;51.70;;;;;;6176931;28;80415;-59
2023/11/12 06:28:26;;;;;;;5.57;3.80;;;24.00;51.10;;;;;;6176265;28;80592;-59
2023/11/12 06:31:27;;;;;;;5.28;3.53;;;24.00;51.20;;;;;;6175802;28;90875;-59
2023/11/12 06:34:27;;;;;;;4.53;3.50;;;24.00;51.10;;;;;;6160170;28;84141;-59
2023/11/12 06:37:28;;;;;;;7.38;3.25;;;24.00;51.10;;;;;;6169781;28;80293;-58
2023/11/12 06:40:28;;;;;;;5.28;3.75;;;24.00;51.20;;;;;;6173795;28;80728;-60
2023/11/12 06:43:29;;;;;;;6.38;3.55;;;24.00;51.70;;;;;;6176599;28;82029;-59
2023/11/12 06:46:30;;;;;;;4.60;3.20;;;24.00;51.00;;;;;;6176781;28;80340;-59
2023/11/12 06:49:32;;;;;;;12.68;3.67;;;23.80;49.90;;;;;;6169086;28;80408;-59
2023/11/12 06:52:32;;;;;;;8.85;3.40;;;23.70;49.00;;;;;;6177126;28;81483;-57
2023/11/12 06:55:33;;;;;;;8.63;3.15;;;23.60;48.90;;;;;;6175442;28;80651;-58
2023/11/12 06:58:33;;;;;;;4.72;2.90;;;23.60;49.30;;;;;;6176839;28;81016;-58
2023/11/12 07:01:34;;;;;;;4.25;2.97;;;23.50;49.30;;;;;;6175094;28;80380;-58
2023/11/12 07:04:34;;;;;;;3.42;3.08;;;23.50;50.10;;;;;;6175075;28;82602;-57
2023/11/12 07:07:35;;;;;;;9.27;2.38;;;23.40;49.20;;;;;;6176340;28;81744;-58
2023/11/12 07:10:38;;;;;;;3.45;2.50;;;23.40;49.50;;;;;;6175384;28;80432;-57
2023/11/12 07:13:38;;;;;;;3.35;2.67;;;23.30;49.20;;;;;;6174914;28;80424;-57
2023/11/12 07:16:39;;;;;;;4.15;2.92;;;23.30;48.90;;;;;;6176004;28;80849;-57
2023/11/12 07:19:39;;;;;;;7.00;3.38;;;23.30;48.50;;;;;;6176692;28;81509;-69
2023/11/12 07:22:42;;;;;;;3.85;3.00;;;23.20;48.10;;;;;;6175267;28;80567;-66
2023/11/12 07:25:43;;;;;;;6.38;3.80;;;23.20;48.40;;;;;;6176389;28;80587;-69
2023/11/12 07:28:44;;;;;;;6.25;4.15;;;23.20;48.30;;;;;;6175329;28;80432;-70
2023/11/12 07:31:44;;;;;;;9.65;4.22;;;23.20;48.60;;;;;;6174468;28;80483;-69
2023/11/12 07:34:45;;;;;;;6.32;3.92;;;23.20;48.40;;;;;;6175647;28;80359;-70
2023/11/12 07:37:45;;;;;;;7.65;4.30;;;23.20;48.20;;;;;;6174754;28;80866;-61
2023/11/12 07:40:46;;;;;;;7.80;4.50;;;23.20;48.50;;;;;;6174903;28;80827;-60
2023/11/12 07:43:46;;;;;;;7.10;4.43;;;23.20;48.60;;;;;;6164923;28;80948;-59
2023/11/12 07:46:47;;;;;;;10.18;4.60;;;23.20;48.10;;;;;;6171519;28;80577;-62
2023/11/12 07:49:47;;;;;;;4.88;3.65;;;23.20;48.40;;;;;;6170963;28;87613;-61
2023/11/12 07:52:49;;;;;;;8.60;3.65;;;23.20;49.00;;;;;;6174153;28;86375;-64
2023/11/12 07:55:49;;;;;;;6.43;3.17;;;23.20;48.60;;;;;;6171802;28;85662;-63
2023/11/12 07:58:50;;;;;;;7.10;3.42;;;23.20;48.00;;;;;;6173768;28;80139;-60
2023/11/12 08:01:50;;;;;;;7.28;3.22;;;23.10;48.20;;;;;;6175229;28;81572;-62
2023/11/12 08:04:51;;;;;;;4.18;2.70;;;23.10;47.40;;;;;;6174696;28;80925;-60
2023/11/12 08:07:51;;;;;;;4.00;2.72;;;23.10;48.10;;;;;;6173976;28;81573;-61
2023/11/12 08:10:53;;;;;;;4.65;2.97;;;23.10;47.60;;;;;;6176017;28;81013;-61
2023/11/12 08:13:54;;;;;;;5.90;3.15;;;23.10;47.80;;;;;;6170107;28;81777;-60
2023/11/12 08:16:54;;;;;;;5.25;2.95;;;23.10;47.50;;;;;;6173698;28;80848;-50
2023/11/12 08:19:55;;;;;;;4.03;2.95;;;23.10;47.60;;;;;;6175094;28;82902;-48
2023/11/12 08:22:55;;;;;;;4.15;2.80;;;23.10;47.30;;;;;;6155446;28;82280;-56
2023/11/12 08:25:56;;;;;;;5.38;3.15;;;23.00;46.40;;;;;;6153917;28;81877;-57
2023/11/12 08:28:57;;;;;;;4.45;3.42;;;23.00;46.00;;;;;;6154594;28;81363;-59
2023/11/12 08:31:57;;;;;;;3.72;3.03;;;22.90;45.50;;;;;;6153836;28;81821;-59
2023/11/12 08:34:58;;;;;;;4.47;2.50;;;22.90;45.90;;;;;;6154528;28;81954;-68
2023/11/12 08:37:59;;;;;;;4.13;2.80;;;22.90;45.90;;;;;;6153804;28;82436;-68
2023/11/12 08:41:00;;;;;;;3.50;2.30;;;23.00;46.00;;;;;;6154798;28;81372;-70
2023/11/12 08:44:00;;;;;;;2.65;2.10;;;23.10;46.20;;;;;;6154557;28;82792;-71
2023/11/12 08:47:01;;;;;;;2.97;2.60;;;23.20;46.50;;;;;;6154250;28;82430;-70
2023/11/12 08:50:01;;;;;;;5.28;2.88;;;23.20;47.20;;;;;;6152705;28;82250;-74
2023/11/12 08:53:02;;;;;;;6.68;2.60;;;23.20;47.30;;;;;;6155272;28;81561;-59
2023/11/12 08:56:02;;;;;;;9.48;2.53;;;23.20;47.20;;;;;;6156642;28;81114;-60
2023/11/12 08:59:03;;;;;;;3.72;2.53;;;23.20;47.30;;;;;;6154403;28;81805;-61
2023/11/12 09:02:06;;;;;;;3.55;2.20;;;23.30;47.30;;;;;;6158109;28;81554;-60
2023/11/12 09:05:06;;;;;;;4.40;2.65;;;23.30;47.50;;;;;;6150695;28;82121;-59
2023/11/12 09:08:07;;;;;;;4.22;2.50;;;23.30;47.70;;;;;;6157552;28;81476;-59
2023/11/12 09:11:10;;;;;;;3.25;2.33;;;23.40;48.20;;;;;;6156713;28;81914;-59
2023/11/12 09:14:14;;;;;;;2.78;2.17;;;23.30;48.20;;;;;;6157987;28;81476;-58
2023/11/12 09:17:15;;;;;;;2.60;2.40;;;23.30;48.20;;;;;;6153559;28;81678;-60
2023/11/12 09:20:16;;;;;;;3.05;2.25;;;23.30;48.40;;;;;;6158547;28;82167;-60
2023/11/12 09:23:16;;;;;;;4.90;2.45;;;23.40;48.40;;;;;;6158975;28;81619;-60
2023/11/12 09:26:17;;;;;;;2.78;2.05;;;23.40;48.20;;;;;;6156998;28;81281;-59
2023/11/12 09:29:17;;;;;;;6.35;2.60;;;23.40;47.90;;;;;;6154523;28;80905;-60
2023/11/12 09:32:19;;;;;;;2.80;2.22;;;23.50;48.30;;;;;;6154993;28;81644;-59
2023/11/12 09:35:19;;;;;;;3.33;2.40;;;23.50;47.90;;;;;;6158644;28;81634;-60
2023/11/12 09:38:20;;;;;;;6.05;2.67;;;23.60;47.90;;;;;;6157291;28;81745;-60
2023/11/12 09:41:21;;;;;;;4.28;2.70;;;23.60;47.80;;;;;;6158044;28;82105;-60
2023/11/12 09:44:22;;;;;;;4.95;3.08;;;23.70;47.90;;;;;;6158930;28;81491;-61
2023/11/12 09:47:22;;;;;;;3.97;2.70;;;23.70;48.00;;;;;;6154009;28;81115;-68
2023/11/12 09:50:23;;;;;;;4.47;2.30;;;23.70;48.10;;;;;;6156415;28;81083;-68
2023/11/12 09:53:23;;;;;;;3.67;2.47;;;23.70;47.90;;;;;;6158653;28;81805;-70
2023/11/12 09:56:28;;;;;;;2.85;2.30;;;23.70;47.80;;;;;;6154486;28;82944;-66
2023/11/12 09:59:28;;;;;;;2.97;2.40;;;23.80;48.00;;;;;;6156028;28;81087;-68
2023/11/12 10:02:29;;;;;;;3.38;2.38;;;23.80;48.10;;;;;;6157422;28;81341;-73
2023/11/12 10:05:29;;;;;;;6.15;2.95;;;23.80;47.90;;;;;;6155936;28;81279;-60
2023/11/12 10:08:30;;;;;;;5.65;2.40;;;23.80;47.80;;;;;;6155162;28;81592;-61
2023/11/12 10:11:31;;;;;;;3.88;2.75;;;23.80;47.50;;;;;;6156639;28;81565;-63
2023/11/12 10:14:31;;;;;;;6.28;2.53;;;23.80;47.60;;;;;;6157985;28;81706;-59
2023/11/12 10:17:32;;;;;;;4.35;2.65;;;23.80;47.50;;;;;;6154687;28;81101;-60
2023/11/12 10:20:32;;;;;;;4.57;2.45;;;23.80;47.40;;;;;;6156029;28;83741;-60
2023/11/12 10:23:33;;;;;;;5.03;2.58;;;23.80;48.10;;;;;;6157325;28;81681;-59
2023/11/12 10:26:38;;;;;;;5.82;2.97;;;23.80;48.10;;;;;;6156679;28;81704;-60
2023/11/12 10:29:39;;;;;;;4.40;3.20;;;23.80;48.10;;;;;;6153352;28;81986;-59
2023/11/12 10:32:39;;;;;;;4.30;3.17;;;23.80;48.20;;;;;;6156620;28;81689;-58
2023/11/12 10:35:40;;;;;;;5.75;2.67;;;23.80;48.40;;;;;;6153570;28;84710;-60
2023/11/12 10:38:40;;;;;;;3.38;2.85;;;23.80;48.40;;;;;;6155424;28;82029;-58
2023/11/12 10:41:41;;;;;;;4.70;2.42;;;23.80;48.30;;;;;;6156009;28;81438;-60
2023/11/12 10:44:41;;;;;;;4.28;2.38;;;23.80;48.30;;;;;;6156975;28;80685;-59
2023/11/12 10:47:42;;;;;;;2.88;2.58;;;23.80;48.60;;;;;;6153444;28;82329;-58
2023/11/12 10:50:42;;;;;;;5.45;2.45;;;23.80;48.20;;;;;;6155246;28;81740;-58
2023/11/12 10:53:43;;;;;;;21.15;3.63;;;23.80;48.20;;;;;;6154573;28;80781;-58
2023/11/12 10:56:43;;;;;;;4.05;2.80;;;23.90;48.40;;;;;;6154319;28;82636;-58
2023/11/12 10:59:44;;;;;;;3.53;2.58;;;23.90;48.20;;;;;;6165089;28;81543;-58
2023/11/12 11:02:44;;;;;;;5.97;2.53;;;23.80;48.00;;;;;;6154131;28;85992;-57
2023/11/12 11:05:45;;;;;;;3.78;2.78;;;23.80;48.10;;;;;;6176208;28;80200;-59
2023/11/12 11:08:45;;;;;;;3.95;2.50;;;23.90;48.00;;;;;;6175560;28;81510;-52
2023/11/12 11:11:46;;;;;;;4.50;2.78;;;23.80;48.00;;;;;;6176297;28;80656;-58
2023/11/12 11:14:46;;;;;;;6.60;2.85;;;23.90;47.80;;;;;;6177510;28;82627;-53
2023/11/12 11:17:47;;;;;;;3.22;2.28;;;23.90;47.80;;;;;;6176667;28;80652;-56
2023/11/12 11:20:47;;;;;;;5.90;2.92;;;23.90;47.60;;;;;;6176424;28;81191;-53
2023/11/12 11:23:49;;;;;;;2.78;2.15;;;23.90;47.60;;;;;;6175953;28;81539;-59
2023/11/12 11:26:50;;;;;;;3.75;2.55;;;24.00;47.80;;;;;;6171926;28;83643;-57
2023/11/12 11:29:50;;;;;;;3.67;2.30;;;24.10;47.90;;;;;;6141314;28;83782;-58
2023/11/12 11:32:51;;;;;;;7.22;2.78;;;24.10;47.70;;;;;;6161582;28;83266;-57
2023/11/12 11:35:51;;;;;;;5.00;3.15;;;24.10;47.90;;;;;;6176278;28;80536;-57
2023/11/12 11:38:52;;;;;;;7.65;2.75;;;24.10;48.10;;;;;;6171358;28;80644;-58
2023/11/12 11:41:55;;;;;;;4.57;2.53;;;24.20;47.90;;;;;;6172944;28;80941;-55
2023/11/12 11:44:56;;;;;;;5.38;2.50;;;24.10;47.90;;;;;;6174147;28;82083;-58
2023/11/12 11:47:56;;;;;;;3.70;2.70;;;24.10;48.80;;;;;;6169556;28;82721;-56
2023/11/12 11:50:57;;;;;;;10.52;3.00;;;24.00;48.00;;;;;;6173759;28;80870;-56
2023/11/12 11:53:58;;;;;;;8.15;2.88;;;24.00;48.40;;;;;;6171846;28;81255;-52
2023/11/12 11:56:58;;;;;;;5.95;2.75;;;24.00;48.20;;;;;;6148075;28;83199;-56
2023/11/12 11:59:59;;;;;;;8.25;2.85;;;24.00;48.30;;;;;;6169004;28;80511;-52
2023/11/12 12:03:01;;;;;;;4.88;2.03;;;24.00;48.70;;;;;;6175087;28;81051;-55
2023/11/12 12:06:02;;;;;;;7.63;2.33;;;24.00;48.70;;;;;;6175710;28;81180;-58
2023/11/12 12:09:02;;;;;;;13.13;3.03;;;24.00;48.20;;;;;;6171301;28;81036;-57
2023/11/12 12:12:03;;;;;;;5.80;2.75;;;24.00;48.20;;;;;;6164821;28;80812;-56
2023/11/12 12:15:03;;;;;;;7.43;2.75;;;23.90;47.90;;;;;;6174060;28;81243;-57
2023/11/12 12:18:04;;;;;;;6.15;2.25;;;24.00;47.80;;;;;;6174639;28;80430;-51
2023/11/12 12:21:05;;;;;;;5.35;2.20;;;23.90;47.60;;;;;;6173802;28;80312;-56
2023/11/12 12:24:06;;;;;;;11.38;2.45;;;23.90;47.50;;;;;;6173461;28;81591;-56
2023/11/12 12:27:09;;;;;;;9.80;3.13;;;23.80;47.40;;;;;;6176424;28;84785;-55
2023/11/12 12:30:09;;;;;;;9.10;2.85;;;23.80;47.40;;;;;;6178376;28;80424;-58
2023/11/12 12:33:12;;;;;;;3.95;2.30;;;23.80;47.70;;;;;;6174551;28;86520;-60
2023/11/12 12:36:13;;;;;;;4.75;2.35;;;23.80;47.40;;;;;;6169633;28;81805;-59
2023/11/12 12:39:15;;;;;;;6.45;2.72;;;23.80;47.60;;;;;;6177103;28;80379;-58
2023/11/12 12:42:15;;;;;;;4.45;2.38;;;23.80;47.40;;;;;;6179840;28;80820;-58
2023/11/12 12:45:16;;;;;;;6.78;2.97;;;23.80;47.60;;;;;;6177655;28;81338;-59
2023/11/12 12:48:22;;;;;;;4.85;2.67;;;23.80;47.80;;;;;;6178132;28;80769;-55
2023/11/12 12:51:23;;;;;;;8.90;3.30;;;23.80;47.90;;;;;;6177273;28;80767;-59
2023/11/12 12:54:23;;;;;;;6.20;3.30;;;23.80;47.60;;;;;;6177016;28;80712;-59
2023/11/12 12:57:24;;;;;;;9.80;3.95;;;23.90;47.90;;;;;;6178670;28;83497;-57
2023/11/12 13:00:25;;;;;;;9.07;3.45;;;23.90;48.70;;;;;;6178062;28;80429;-59
2023/11/12 13:03:33;;;;;;;10.00;3.50;;;23.80;49.30;;;;;;6179631;28;80535;-58
2023/11/12 13:06:37;;;;;;;10.18;3.78;;;23.90;49.30;;;;;;6176943;28;80809;-59
2023/11/12 13:09:38;;;;;;;11.13;3.65;;;23.90;49.70;;;;;;6175525;28;80619;-55
2023/11/12 13:12:38;;;;;;;7.32;3.38;;;23.90;49.60;;;;;;6176638;28;80773;-60
2023/11/12 13:15:39;;;;;;;6.25;3.10;;;23.90;49.60;;;;;;6177273;28;80490;-56
2023/11/12 13:18:40;;;;;;;7.72;3.05;;;24.00;49.40;;;;;;6176358;28;80494;-59
2023/11/12 13:21:41;;;;;;;9.80;3.35;;;24.00;49.40;;;;;;6177437;28;80412;-58
2023/11/12 13:24:43;;;;;;;8.25;2.75;;;24.00;49.60;;;;;;6176987;28;85192;-58
2023/11/12 13:27:49;;;;;;;7.90;3.03;;;24.00;49.20;;;;;;6177184;28;80651;-58
2023/11/12 13:30:49;;;;;;;;;;;23.90;49.60;;;;;;6177038;28;80437;-59
2023/11/12 13:33:50;;;;;;;5.63;2.80;;;24.00;49.20;;;;;;6183926;28;80741;-61
2023/11/12 13:36:51;;;;;;;7.72;2.90;;;24.00;49.20;;;;;;6178344;28;81403;-60
2023/11/12 13:39:54;;;;;;;8.35;3.35;;;23.90;49.00;;;;;;6179213;28;81223;-61
2023/11/12 13:42:55;;;;;;;6.88;2.63;;;23.90;48.70;;;;;;6178205;28;81368;-59
2023/11/12 13:45:55;;;;;;;5.57;2.30;;;23.90;48.50;;;;;;6169752;28;81484;-64
2023/11/12 13:48:56;;;;;;;5.70;2.90;;;23.90;48.60;;;;;;6153415;28;81331;-66
2023/11/12 13:51:56;;;;;;;7.90;3.67;;;23.90;49.20;;;;;;6157419;28;82475;-66
2023/11/12 13:54:57;;;;;;;8.00;3.40;;;23.90;49.10;;;;;;6160099;28;80519;-68
2023/11/12 13:57:58;;;;;;;7.07;3.25;;;23.90;49.00;;;;;;6159402;28;83849;-67
2023/11/12 14:01:00;;;;;;;9.52;3.40;;;23.90;49.10;;;;;;6156692;28;82586;-67
2023/11/12 14:04:01;;;;;;;11.82;3.80;;;23.90;49.00;;;;;;6159441;28;80787;-73
2023/11/12 14:07:04;;;;;;;13.55;4.45;;;23.90;49.20;;;;;;6157032;28;82695;-64
2023/11/12 14:10:08;;;;;;;18.38;9.80;;;23.90;49.10;;;;;;6158897;28;80532;-66
2023/11/12 14:13:09;;;;;;;17.55;11.35;;;24.00;49.30;;;;;;6159593;28;81827;-66
2023/11/12 14:16:12;;;;;;;19.33;11.93;;;24.00;49.40;;;;;;6151173;28;84643;-67
2023/11/12 14:19:12;;;;;;;18.83;11.20;;;23.90;49.20;;;;;;6156675;28;84382;-67
2023/11/12 14:22:14;;;;;;;16.77;9.13;;;24.00;49.30;;;;;;6154519;28;83759;-59
2023/11/12 14:25:18;;;;;;;15.05;8.65;;;24.00;49.00;;;;;;6156075;28;83403;-61
2023/11/12 14:28:23;;;;;;;13.93;8.38;;;23.90;49.60;;;;;;6147903;28;81140;-61
2023/11/12 14:31:23;;;;;;;13.15;7.40;;;23.90;49.20;;;;;;6153343;28;83146;-60
2023/11/12 14:34:25;;;;;;;13.55;7.03;;;23.90;49.20;;;;;;6157563;28;82042;-61
2023/11/12 14:37:25;;;;;;;11.23;6.88;;;23.90;49.30;;;;;;6155577;28;81820;-60
2023/11/12 14:40:26;;;;;;;9.95;6.13;;;24.00;49.60;;;;;;6159071;28;81692;-61
2023/11/12 14:43:27;;;;;;;11.15;5.80;;;24.00;49.40;;;;;;6153757;28;82430;-55
2023/11/12 14:46:33;;;;;;;9.63;5.57;;;24.00;50.10;;;;;;6155103;28;81111;-52
2023/11/12 14:49:34;;;;;;;8.25;5.10;;;24.00;49.30;;;;;;6155454;28;81372;-54
2023/11/12 14:52:34;;;;;;;6.85;4.75;;;24.00;49.30;;;;;;6158069;28;82340;-57
2023/11/12 14:55:36;;;;;;;7.13;4.72;;;24.00;49.30;;;;;;6152814;28;81217;-57
2023/11/12 14:58:37;;;;;;;8.73;4.70;;;24.00;49.10;;;;;;6137274;28;85370;-59
2023/11/12 15:01:41;;;;;;;7.15;4.35;;;23.90;48.70;;;;;;6154389;28;81027;-56
2023/11/12 15:04:41;;;;;;;6.43;4.45;;;24.00;48.50;;;;;;6157287;28;81660;-59
2023/11/12 15:07:43;;;;;;;11.65;4.78;;;23.90;48.20;;;;;;6151494;28;81742;-60
2023/11/12 15:10:44;;;;;;;8.20;5.22;;;23.90;47.90;;;;;;6174391;28;81393;-61
2023/11/12 15:13:44;;;;;;;14.00;6.40;;;23.90;47.80;;;;;;6175163;28;80417;-59
2023/11/12 15:16:45;;;;;;;15.95;9.57;;;23.90;47.70;;;;;;6157434;28;87827;-68
2023/11/12 15:19:45;;;;;;;19.42;9.25;;;23.80;48.20;;;;;;6173329;28;81532;-67
2023/11/12 15:22:46;;;;;;;16.40;8.15;;;23.80;48.30;;;;;;6175760;28;80237;-66
2023/11/12 15:25:46;;;;;;;16.95;8.50;;;23.80;49.00;;;;;;6175074;28;81690;-67
2023/11/12 15:28:47;;;;;;;13.15;7.65;;;23.90;48.20;;;;;;6175379;28;83403;-69
2023/11/12 15:31:48;;;;;;;15.38;7.63;;;23.90;48.70;;;;;;6174660;28;80701;-69
2023/11/12 15:34:49;;;;;;;13.30;6.28;;;23.90;48.70;;;;;;6158163;28;85877;-64